sensor_id;sensor_type;location;lat;lon;timestamp;pressure;altitude;pressure_sealevel;temperature;humidity
67373;BME280;54257;54.496;18.412;2022-11-11T00:01:15;100571.11;;;9.65;97.67
67373;BME280;54257;54.496;18.412;2022-11-11T00:03:42;100565.47;;;9.65;97.53
67373;BME280;54257;54.496;18.412;2022-11-11T00:06:14;100557.20;;;9.61;97.38
67373;BME280;54257;54.496;18.412;2022-11-11T00:08:41;100571.41;;;9.59;97.20
67373;BME280;54257;54.496;18.412;2022-11-11T00:11:15;100578.17;;;9.56;97.21
67373;BME280;54257;54.496;18.412;2022-11-11T00:13:43;100580.29;;;9.52;97.15
67373;BME280;54257;54.496;18.412;2022-11-11T00:16:14;100583.42;;;9.49;97.21
67373;BME280;54257;54.496;18.412;2022-11-11T00:18:42;100587.77;;;9.46;97.21
67373;BME280;54257;54.496;18.412;2022-11-11T00:21:29;100598.41;;;9.43;97.37
67373;BME280;54257;54.496;18.412;2022-11-11T00:24:26;100596.27;;;9.40;97.28
67373;BME280;54257;54.496;18.412;2022-11-11T00:27:13;100601.31;;;9.38;97.43
67373;BME280;54257;54.496;18.412;2022-11-11T00:29:45;100595.64;;;9.37;97.32
67373;BME280;54257;54.496;18.412;2022-11-11T00:32:13;100596.27;;;9.35;97.39
67373;BME280;54257;54.496;18.412;2022-11-11T00:34:50;100596.90;;;9.34;97.41
67373;BME280;54257;54.496;18.412;2022-11-11T00:37:37;100606.91;;;9.32;97.35
67373;BME280;54257;54.496;18.412;2022-11-11T00:40:04;100610.11;;;9.30;97.33
67373;BME280;54257;54.496;18.412;2022-11-11T00:42:31;100613.70;;;9.31;97.23
67373;BME280;54257;54.496;18.412;2022-11-11T00:44:58;100610.80;;;9.31;97.44
67373;BME280;54257;54.496;18.412;2022-11-11T00:47:25;100605.54;;;9.31;97.63
67373;BME280;54257;54.496;18.412;2022-11-11T00:50:18;100603.69;;;9.32;97.70
67373;BME280;54257;54.496;18.412;2022-11-11T00:53:11;100599.83;;;9.34;98.12
67373;BME280;54257;54.496;18.412;2022-11-11T00:55:39;100596.50;;;9.37;98.06
67373;BME280;54257;54.496;18.412;2022-11-11T00:58:06;100580.40;;;9.40;98.43
67373;BME280;54257;54.496;18.412;2022-11-11T01:00:33;100580.14;;;9.43;98.41
67373;BME280;54257;54.496;18.412;2022-11-11T01:03:01;100578.89;;;9.46;98.54
67373;BME280;54257;54.496;18.412;2022-11-11T01:05:27;100582.80;;;9.51;98.60
67373;BME280;54257;54.496;18.412;2022-11-11T01:07:54;100579.21;;;9.57;98.69
67373;BME280;54257;54.496;18.412;2022-11-11T01:10:22;100570.27;;;9.60;98.33
67373;BME280;54257;54.496;18.412;2022-11-11T01:13:07;100559.42;;;9.62;98.22
67373;BME280;54257;54.496;18.412;2022-11-11T01:15:43;100550.42;;;9.63;98.11
67373;BME280;54257;54.496;18.412;2022-11-11T01:18:12;100550.29;;;9.64;97.94
67373;BME280;54257;54.496;18.412;2022-11-11T01:20:40;100547.21;;;9.65;97.98
67373;BME280;54257;54.496;18.412;2022-11-11T01:23:08;100545.31;;;9.69;98.12
67373;BME280;54257;54.496;18.412;2022-11-11T01:25:37;100550.52;;;9.72;97.81
67373;BME280;54257;54.496;18.412;2022-11-11T01:28:05;100548.48;;;9.73;97.50
67373;BME280;54257;54.496;18.412;2022-11-11T01:30:34;100537.70;;;9.71;97.24
67373;BME280;54257;54.496;18.412;2022-11-11T01:33:02;100533.20;;;9.69;97.14
67373;BME280;54257;54.496;18.412;2022-11-11T01:35:30;100533.83;;;9.68;97.15
67373;BME280;54257;54.496;18.412;2022-11-11T01:37:58;100529.88;;;9.66;97.24
67373;BME280;54257;54.496;18.412;2022-11-11T01:40:25;100522.69;;;9.66;97.34
67373;BME280;54257;54.496;18.412;2022-11-11T01:43:13;100526.39;;;9.64;97.28
67373;BME280;54257;54.496;18.412;2022-11-11T01:48:18;100533.69;;;9.57;97.12
67373;BME280;54257;54.496;18.412;2022-11-11T01:51:05;100543.48;;;9.53;97.22
67373;BME280;54257;54.496;18.412;2022-11-11T01:53:38;100554.83;;;9.51;97.34
67373;BME280;54257;54.496;18.412;2022-11-11T01:56:06;100561.60;;;9.49;97.32
67373;BME280;54257;54.496;18.412;2022-11-11T01:58:35;100561.42;;;9.49;97.64
67373;BME280;54257;54.496;18.412;2022-11-11T02:01:02;100561.24;;;9.49;97.58
67373;BME280;54257;54.496;18.412;2022-11-11T02:03:32;100576.59;;;9.49;97.50
67373;BME280;54257;54.496;18.412;2022-11-11T02:06:01;100587.00;;;9.49;97.55
67373;BME280;54257;54.496;18.412;2022-11-11T02:08:35;100591.81;;;9.50;97.67
67373;BME280;54257;54.496;18.412;2022-11-11T02:13:33;100590.30;;;9.56;97.92
67373;BME280;54257;54.496;18.412;2022-11-11T02:16:22;100586.11;;;9.60;97.86
67373;BME280;54257;54.496;18.412;2022-11-11T02:18:49;100592.85;;;9.62;97.78
67373;BME280;54257;54.496;18.412;2022-11-11T02:21:41;100601.13;;;9.65;97.66
67373;BME280;54257;54.496;18.412;2022-11-11T02:24:15;100597.92;;;9.66;97.64
67373;BME280;54257;54.496;18.412;2022-11-11T02:26:43;100593.35;;;9.68;97.53
67373;BME280;54257;54.496;18.412;2022-11-11T02:29:14;100590.83;;;9.69;97.54
67373;BME280;54257;54.496;18.412;2022-11-11T02:31:42;100596.66;;;9.69;97.52
67373;BME280;54257;54.496;18.412;2022-11-11T02:34:10;100602.33;;;9.70;97.67
67373;BME280;54257;54.496;18.412;2022-11-11T02:36:37;100600.47;;;9.71;97.77
67373;BME280;54257;54.496;18.412;2022-11-11T02:39:05;100603.55;;;9.71;98.05
67373;BME280;54257;54.496;18.412;2022-11-11T02:41:33;100606.42;;;9.70;98.36
67373;BME280;54257;54.496;18.412;2022-11-11T02:44:18;100612.71;;;9.70;98.50
67373;BME280;54257;54.496;18.412;2022-11-11T02:46:45;100606.19;;;9.68;98.56
67373;BME280;54257;54.496;18.412;2022-11-11T02:49:12;100604.98;;;9.68;98.67
67373;BME280;54257;54.496;18.412;2022-11-11T02:51:39;100604.98;;;9.68;98.39
67373;BME280;54257;54.496;18.412;2022-11-11T02:54:06;100604.65;;;9.68;98.56
67373;BME280;54257;54.496;18.412;2022-11-11T02:56:33;100602.90;;;9.67;98.50
67373;BME280;54257;54.496;18.412;2022-11-11T02:59:19;100605.79;;;9.67;98.40
67373;BME280;54257;54.496;18.412;2022-11-11T03:01:47;100604.23;;;9.66;98.46
67373;BME280;54257;54.496;18.412;2022-11-11T03:04:14;100606.09;;;9.66;98.59
67373;BME280;54257;54.496;18.412;2022-11-11T03:06:41;100606.57;;;9.64;98.79
67373;BME280;54257;54.496;18.412;2022-11-11T03:09:08;100608.75;;;9.63;98.87
67373;BME280;54257;54.496;18.412;2022-11-11T03:11:35;100614.00;;;9.62;98.90
67373;BME280;54257;54.496;18.412;2022-11-11T03:14:04;100624.54;;;9.61;98.92
67373;BME280;54257;54.496;18.412;2022-11-11T03:16:31;100630.99;;;9.60;99.21
67373;BME280;54257;54.496;18.412;2022-11-11T03:19:17;100623.64;;;9.60;99.26
67373;BME280;54257;54.496;18.412;2022-11-11T03:21:44;100613.73;;;9.59;99.30
67373;BME280;54257;54.496;18.412;2022-11-11T03:24:11;100605.02;;;9.58;99.28
67373;BME280;54257;54.496;18.412;2022-11-11T03:26:38;100602.80;;;9.59;99.39
67373;BME280;54257;54.496;18.412;2022-11-11T03:29:05;100604.15;;;9.58;99.37
67373;BME280;54257;54.496;18.412;2022-11-11T03:31:32;100597.66;;;9.58;99.48
67373;BME280;54257;54.496;18.412;2022-11-11T03:33:59;100594.21;;;9.56;99.53
67373;BME280;54257;54.496;18.412;2022-11-11T03:36:44;100591.29;;;9.55;99.74
67373;BME280;54257;54.496;18.412;2022-11-11T03:39:30;100586.97;;;9.53;99.76
67373;BME280;54257;54.496;18.412;2022-11-11T03:41:57;100579.59;;;9.52;99.99
67373;BME280;54257;54.496;18.412;2022-11-11T03:44:24;100582.27;;;9.51;99.90
67373;BME280;54257;54.496;18.412;2022-11-11T03:46:51;100580.87;;;9.49;100.00
67373;BME280;54257;54.496;18.412;2022-11-11T03:49:19;100587.17;;;9.49;100.00
67373;BME280;54257;54.496;18.412;2022-11-11T03:51:46;100586.28;;;9.48;100.00
67373;BME280;54257;54.496;18.412;2022-11-11T03:54:13;100593.08;;;9.47;100.00
67373;BME280;54257;54.496;18.412;2022-11-11T03:56:40;100593.92;;;9.46;100.00
67373;BME280;54257;54.496;18.412;2022-11-11T03:59:07;100593.05;;;9.46;100.00
67373;BME280;54257;54.496;18.412;2022-11-11T04:01:34;100596.97;;;9.46;100.00
67373;BME280;54257;54.496;18.412;2022-11-11T04:04:20;100594.08;;;9.46;100.00
67373;BME280;54257;54.496;18.412;2022-11-11T04:07:08;100584.70;;;9.46;100.00
67373;BME280;54257;54.496;18.412;2022-11-11T04:09:54;100583.99;;;9.45;100.00
67373;BME280;54257;54.496;18.412;2022-11-11T04:12:41;100584.34;;;9.45;100.00
67373;BME280;54257;54.496;18.412;2022-11-11T04:15:27;100585.52;;;9.45;100.00
67373;BME280;54257;54.496;18.412;2022-11-11T04:18:13;100579.73;;;9.45;100.00
67373;BME280;54257;54.496;18.412;2022-11-11T04:20:42;100569.50;;;9.45;100.00
67373;BME280;54257;54.496;18.412;2022-11-11T04:23:28;100565.79;;;9.46;100.00
67373;BME280;54257;54.496;18.412;2022-11-11T04:25:59;100565.09;;;9.46;100.00
67373;BME280;54257;54.496;18.412;2022-11-11T04:28:26;100567.48;;;9.47;100.00
67373;BME280;54257;54.496;18.412;2022-11-11T04:31:12;100556.76;;;9.46;100.00
67373;BME280;54257;54.496;18.412;2022-11-11T04:33:39;100545.52;;;9.47;100.00
67373;BME280;54257;54.496;18.412;2022-11-11T04:36:06;100543.99;;;9.48;100.00
67373;BME280;54257;54.496;18.412;2022-11-11T04:38:33;100543.48;;;9.48;100.00
67373;BME280;54257;54.496;18.412;2022-11-11T04:41:20;100546.39;;;9.48;100.00
67373;BME280;54257;54.496;18.412;2022-11-11T04:43:46;100553.71;;;9.48;100.00
67373;BME280;54257;54.496;18.412;2022-11-11T04:46:32;100557.85;;;9.49;100.00
67373;BME280;54257;54.496;18.412;2022-11-11T04:48:59;100548.66;;;9.50;100.00
67373;BME280;54257;54.496;18.412;2022-11-11T04:51:26;100547.84;;;9.51;100.00
67373;BME280;54257;54.496;18.412;2022-11-11T04:54:13;100544.65;;;9.52;100.00
67373;BME280;54257;54.496;18.412;2022-11-11T04:56:40;100544.14;;;9.53;100.00
67373;BME280;54257;54.496;18.412;2022-11-11T04:59:13;100539.72;;;9.53;100.00
67373;BME280;54257;54.496;18.412;2022-11-11T05:01:43;100536.80;;;9.52;100.00
67373;BME280;54257;54.496;18.412;2022-11-11T05:04:29;100539.14;;;9.51;100.00
67373;BME280;54257;54.496;18.412;2022-11-11T05:06:56;100542.52;;;9.50;100.00
67373;BME280;54257;54.496;18.412;2022-11-11T05:09:41;100539.09;;;9.49;100.00
67373;BME280;54257;54.496;18.412;2022-11-11T05:12:08;100532.78;;;9.49;100.00
67373;BME280;54257;54.496;18.412;2022-11-11T05:14:35;100533.47;;;9.50;100.00
67373;BME280;54257;54.496;18.412;2022-11-11T05:17:21;100536.38;;;9.50;100.00
67373;BME280;54257;54.496;18.412;2022-11-11T05:20:07;100536.73;;;9.50;100.00
67373;BME280;54257;54.496;18.412;2022-11-11T05:22:54;100542.90;;;9.51;100.00
67373;BME280;54257;54.496;18.412;2022-11-11T05:25:21;100542.43;;;9.53;100.00
67373;BME280;54257;54.496;18.412;2022-11-11T05:27:52;100545.91;;;9.54;100.00
67373;BME280;54257;54.496;18.412;2022-11-11T05:30:20;100547.66;;;9.56;100.00
67373;BME280;54257;54.496;18.412;2022-11-11T05:32:48;100543.95;;;9.58;100.00
67373;BME280;54257;54.496;18.412;2022-11-11T05:35:16;100545.70;;;9.60;100.00
67373;BME280;54257;54.496;18.412;2022-11-11T05:37:43;100542.19;;;9.61;100.00
67373;BME280;54257;54.496;18.412;2022-11-11T05:40:30;100543.59;;;9.63;100.00
67373;BME280;54257;54.496;18.412;2022-11-11T05:42:57;100547.08;;;9.65;100.00
67373;BME280;54257;54.496;18.412;2022-11-11T05:45:25;100548.31;;;9.67;99.91
67373;BME280;54257;54.496;18.412;2022-11-11T05:47:51;100551.48;;;9.70;99.76
67373;BME280;54257;54.496;18.412;2022-11-11T05:50:18;100542.50;;;9.72;99.52
67373;BME280;54257;54.496;18.412;2022-11-11T05:52:47;100539.98;;;9.73;99.32
67373;BME280;54257;54.496;18.412;2022-11-11T05:55:14;100535.77;;;9.75;99.27
67373;BME280;54257;54.496;18.412;2022-11-11T05:57:41;100534.11;;;9.77;99.14
67373;BME280;54257;54.496;18.412;2022-11-11T06:00:08;100525.61;;;9.78;98.87
67373;BME280;54257;54.496;18.412;2022-11-11T06:02:36;100528.55;;;9.79;98.74
67373;BME280;54257;54.496;18.412;2022-11-11T06:05:04;100536.77;;;9.80;98.71
67373;BME280;54257;54.496;18.412;2022-11-11T06:07:31;100544.30;;;9.81;98.55
67373;BME280;54257;54.496;18.412;2022-11-11T06:09:58;100548.63;;;9.83;98.50
67373;BME280;54257;54.496;18.412;2022-11-11T06:12:45;100554.80;;;9.85;98.38
67373;BME280;54257;54.496;18.412;2022-11-11T06:15:31;100553.48;;;9.86;98.18
67373;BME280;54257;54.496;18.412;2022-11-11T06:17:59;100557.11;;;9.87;98.20
67373;BME280;54257;54.496;18.412;2022-11-11T06:20:27;100556.10;;;9.88;98.09
67373;BME280;54257;54.496;18.412;2022-11-11T06:22:54;100557.67;;;9.89;98.21
67373;BME280;54257;54.496;18.412;2022-11-11T06:25:26;100567.41;;;9.90;98.11
67373;BME280;54257;54.496;18.412;2022-11-11T06:28:13;100579.88;;;9.90;98.02
67373;BME280;54257;54.496;18.412;2022-11-11T06:30:40;100585.20;;;9.91;98.07
67373;BME280;54257;54.496;18.412;2022-11-11T06:33:08;100593.58;;;9.92;98.16
67373;BME280;54257;54.496;18.412;2022-11-11T06:35:37;100594.95;;;9.93;98.28
67373;BME280;54257;54.496;18.412;2022-11-11T06:38:05;100588.47;;;9.92;98.47
67373;BME280;54257;54.496;18.412;2022-11-11T06:40:33;100595.94;;;9.91;98.45
67373;BME280;54257;54.496;18.412;2022-11-11T06:43:00;100596.77;;;9.90;98.81
67373;BME280;54257;54.496;18.412;2022-11-11T06:45:29;100595.72;;;9.89;98.76
67373;BME280;54257;54.496;18.412;2022-11-11T06:47:56;100596.22;;;9.89;98.76
67373;BME280;54257;54.496;18.412;2022-11-11T06:50:23;100596.55;;;9.89;98.78
67373;BME280;54257;54.496;18.412;2022-11-11T06:52:50;100606.46;;;9.89;98.72
67373;BME280;54257;54.496;18.412;2022-11-11T06:55:17;100604.02;;;9.87;98.67
67373;BME280;54257;54.496;18.412;2022-11-11T06:57:44;100595.23;;;9.90;98.63
67373;BME280;54257;54.496;18.412;2022-11-11T07:00:12;100603.26;;;9.90;98.50
67373;BME280;54257;54.496;18.412;2022-11-11T07:02:39;100610.11;;;9.91;98.35
67373;BME280;54257;54.496;18.412;2022-11-11T07:05:07;100613.73;;;9.93;98.30
67373;BME280;54257;54.496;18.412;2022-11-11T07:07:35;100612.44;;;9.94;98.16
67373;BME280;54257;54.496;18.412;2022-11-11T07:10:03;100595.68;;;9.93;98.08
67373;BME280;54257;54.496;18.412;2022-11-11T07:12:33;100595.10;;;9.97;98.03
67373;BME280;54257;54.496;18.412;2022-11-11T07:14:59;100597.34;;;9.98;97.87
67373;BME280;54257;54.496;18.412;2022-11-11T07:17:26;100597.02;;;9.99;97.83
67373;BME280;54257;54.496;18.412;2022-11-11T07:19:53;100600.31;;;10.01;97.64
67373;BME280;54257;54.496;18.412;2022-11-11T07:22:20;100603.27;;;10.02;97.53
67373;BME280;54257;54.496;18.412;2022-11-11T07:24:47;100608.45;;;10.03;97.40
67373;BME280;54257;54.496;18.412;2022-11-11T07:27:14;100615.65;;;10.05;97.43
67373;BME280;54257;54.496;18.412;2022-11-11T07:29:41;100623.55;;;10.07;97.24
67373;BME280;54257;54.496;18.412;2022-11-11T07:32:08;100625.63;;;10.08;96.97
67373;BME280;54257;54.496;18.412;2022-11-11T07:34:35;100625.14;;;10.09;96.91
67373;BME280;54257;54.496;18.412;2022-11-11T07:37:05;100626.09;;;10.12;96.87
67373;BME280;54257;54.496;18.412;2022-11-11T07:39:33;100620.61;;;10.11;96.79
67373;BME280;54257;54.496;18.412;2022-11-11T07:42:00;100621.55;;;10.15;96.73
67373;BME280;54257;54.496;18.412;2022-11-11T07:44:28;100628.57;;;10.16;96.61
67373;BME280;54257;54.496;18.412;2022-11-11T07:46:55;100630.48;;;10.17;96.56
67373;BME280;54257;54.496;18.412;2022-11-11T07:49:21;100634.23;;;10.17;96.73
67373;BME280;54257;54.496;18.412;2022-11-11T07:51:48;100629.63;;;10.17;96.90
67373;BME280;54257;54.496;18.412;2022-11-11T07:54:15;100621.06;;;10.16;97.21
67373;BME280;54257;54.496;18.412;2022-11-11T07:56:42;100627.85;;;10.14;97.59
67373;BME280;54257;54.496;18.412;2022-11-11T07:59:09;100629.33;;;10.11;97.81
67373;BME280;54257;54.496;18.412;2022-11-11T08:01:36;100627.90;;;10.09;97.98
67373;BME280;54257;54.496;18.412;2022-11-11T08:04:03;100625.51;;;10.09;97.98
67373;BME280;54257;54.496;18.412;2022-11-11T08:06:31;100636.09;;;10.10;98.09
67373;BME280;54257;54.496;18.412;2022-11-11T08:08:58;100635.06;;;10.10;98.20
67373;BME280;54257;54.496;18.412;2022-11-11T08:11:25;100640.31;;;10.08;98.48
67373;BME280;54257;54.496;18.412;2022-11-11T08:14:11;100650.55;;;10.08;98.67
67373;BME280;54257;54.496;18.412;2022-11-11T08:16:38;100658.36;;;10.07;98.99
67373;BME280;54257;54.496;18.412;2022-11-11T08:19:05;100654.92;;;10.06;99.13
67373;BME280;54257;54.496;18.412;2022-11-11T08:21:32;100649.09;;;10.04;99.64
67373;BME280;54257;54.496;18.412;2022-11-11T08:23:59;100642.93;;;10.04;99.63
67373;BME280;54257;54.496;18.412;2022-11-11T08:26:26;100641.23;;;10.04;99.76
67373;BME280;54257;54.496;18.412;2022-11-11T08:28:52;100641.72;;;10.03;99.95
67373;BME280;54257;54.496;18.412;2022-11-11T08:31:19;100639.99;;;10.03;100.00
67373;BME280;54257;54.496;18.412;2022-11-11T08:33:46;100639.29;;;10.02;100.00
67373;BME280;54257;54.496;18.412;2022-11-11T08:36:13;100642.84;;;10.01;100.00
67373;BME280;54257;54.496;18.412;2022-11-11T08:38:40;100643.66;;;10.01;100.00
67373;BME280;54257;54.496;18.412;2022-11-11T08:41:08;100638.87;;;10.00;100.00
67373;BME280;54257;54.496;18.412;2022-11-11T08:43:36;100646.55;;;10.00;100.00
67373;BME280;54257;54.496;18.412;2022-11-11T08:46:03;100643.13;;;10.00;100.00
67373;BME280;54257;54.496;18.412;2022-11-11T08:48:31;100644.30;;;9.99;100.00
67373;BME280;54257;54.496;18.412;2022-11-11T08:50:58;100648.21;;;9.99;100.00
67373;BME280;54257;54.496;18.412;2022-11-11T08:53:26;100654.88;;;9.98;100.00
67373;BME280;54257;54.496;18.412;2022-11-11T08:55:53;100663.07;;;9.99;100.00
67373;BME280;54257;54.496;18.412;2022-11-11T08:58:21;100669.71;;;9.98;100.00
67373;BME280;54257;54.496;18.412;2022-11-11T09:00:48;100669.36;;;9.98;100.00
67373;BME280;54257;54.496;18.412;2022-11-11T09:03:15;100669.39;;;9.99;100.00
67373;BME280;54257;54.496;18.412;2022-11-11T09:05:42;100673.84;;;9.99;100.00
67373;BME280;54257;54.496;18.412;2022-11-11T09:08:09;100674.89;;;10.00;100.00
67373;BME280;54257;54.496;18.412;2022-11-11T09:10:37;100673.58;;;10.02;100.00
67373;BME280;54257;54.496;18.412;2022-11-11T09:13:05;100671.75;;;10.03;100.00
67373;BME280;54257;54.496;18.412;2022-11-11T09:15:35;100663.59;;;10.05;100.00
67373;BME280;54257;54.496;18.412;2022-11-11T09:18:03;100651.32;;;10.05;100.00
67373;BME280;54257;54.496;18.412;2022-11-11T09:20:30;100645.70;;;10.06;100.00
67373;BME280;54257;54.496;18.412;2022-11-11T09:22:57;100647.44;;;10.07;100.00
67373;BME280;54257;54.496;18.412;2022-11-11T09:25:24;100646.94;;;10.07;100.00
67373;BME280;54257;54.496;18.412;2022-11-11T09:27:59;100649.67;;;10.08;100.00
67373;BME280;54257;54.496;18.412;2022-11-11T09:30:28;100645.59;;;10.08;100.00
67373;BME280;54257;54.496;18.412;2022-11-11T09:33:02;100650.21;;;10.08;100.00
67373;BME280;54257;54.496;18.412;2022-11-11T09:35:30;100659.29;;;10.09;100.00
67373;BME280;54257;54.496;18.412;2022-11-11T09:37:59;100658.47;;;10.10;100.00
67373;BME280;54257;54.496;18.412;2022-11-11T09:40:38;100663.98;;;10.11;100.00
67373;BME280;54257;54.496;18.412;2022-11-11T09:43:35;100673.22;;;10.12;100.00
67373;BME280;54257;54.496;18.412;2022-11-11T09:49:23;100674.98;;;10.15;100.00
67373;BME280;54257;54.496;18.412;2022-11-11T09:54:53;100679.19;;;10.18;100.00
67373;BME280;54257;54.496;18.412;2022-11-11T10:00:22;100683.06;;;10.22;100.00
67373;BME280;54257;54.496;18.412;2022-11-11T10:05:40;100681.73;;;10.27;100.00
67373;BME280;54257;54.496;18.412;2022-11-11T10:08:23;100680.42;;;10.30;100.00
67373;BME280;54257;54.496;18.412;2022-11-11T10:10:53;100682.02;;;10.32;100.00
67373;BME280;54257;54.496;18.412;2022-11-11T10:13:27;100680.95;;;10.36;100.00
67373;BME280;54257;54.496;18.412;2022-11-11T10:18:47;100683.13;;;10.41;99.69
67373;BME280;54257;54.496;18.412;2022-11-11T10:21:23;100674.16;;;10.43;99.12
67373;BME280;54257;54.496;18.412;2022-11-11T10:23:56;100663.61;;;10.45;98.55
67373;BME280;54257;54.496;18.412;2022-11-11T10:26:35;100656.70;;;10.48;98.33
67373;BME280;54257;54.496;18.412;2022-11-11T10:29:07;100658.30;;;10.50;98.17
67373;BME280;54257;54.496;18.412;2022-11-11T10:31:40;100656.14;;;10.52;97.69
67373;BME280;54257;54.496;18.412;2022-11-11T10:34:12;100657.23;;;10.55;97.79
67373;BME280;54257;54.496;18.412;2022-11-11T10:36:48;100660.70;;;10.57;97.86
67373;BME280;54257;54.496;18.412;2022-11-11T10:39:23;100665.86;;;10.58;97.93
67373;BME280;54257;54.496;18.412;2022-11-11T10:41:51;100657.90;;;10.60;97.70
67373;BME280;54257;54.496;18.412;2022-11-11T10:44:24;100653.01;;;10.63;97.16
67373;BME280;54257;54.496;18.412;2022-11-11T10:49:36;100666.30;;;10.67;96.96
67373;BME280;54257;54.496;18.412;2022-11-11T10:52:09;100659.32;;;10.69;96.74
67373;BME280;54257;54.496;18.412;2022-11-11T10:57:27;100656.33;;;10.73;96.59
67373;BME280;54257;54.496;18.412;2022-11-11T11:00:04;100659.95;;;10.74;96.29
67373;BME280;54257;54.496;18.412;2022-11-11T11:02:56;100672.02;;;10.76;96.47
67373;BME280;54257;54.496;18.412;2022-11-11T11:05:54;100675.65;;;10.79;96.48
67373;BME280;54257;54.496;18.412;2022-11-11T11:08:23;100679.61;;;10.80;96.08
67373;BME280;54257;54.496;18.412;2022-11-11T11:11:00;100677.77;;;10.82;96.01
67373;BME280;54257;54.496;18.412;2022-11-11T11:13:44;100684.69;;;10.84;95.84
67373;BME280;54257;54.496;18.412;2022-11-11T11:16:24;100693.45;;;10.86;95.67
67373;BME280;54257;54.496;18.412;2022-11-11T11:19:17;100691.59;;;10.87;95.37
67373;BME280;54257;54.496;18.412;2022-11-11T11:21:56;100689.09;;;10.89;95.23
67373;BME280;54257;54.496;18.412;2022-11-11T11:24:29;100688.95;;;10.90;95.17
67373;BME280;54257;54.496;18.412;2022-11-11T11:27:02;100687.64;;;10.92;94.83
67373;BME280;54257;54.496;18.412;2022-11-11T11:29:35;100683.59;;;10.94;94.97
67373;BME280;54257;54.496;18.412;2022-11-11T11:32:39;100686.58;;;10.97;95.18
67373;BME280;54257;54.496;18.412;2022-11-11T11:35:43;100684.06;;;10.99;94.60
67373;BME280;54257;54.496;18.412;2022-11-11T11:38:11;100681.04;;;11.01;94.62
67373;BME280;54257;54.496;18.412;2022-11-11T11:43:35;100685.77;;;11.06;94.67
67373;BME280;54257;54.496;18.412;2022-11-11T11:47:00;100684.27;;;11.07;94.41
67373;BME280;54257;54.496;18.412;2022-11-11T11:49:56;100679.88;;;11.09;94.34
67373;BME280;54257;54.496;18.412;2022-11-11T11:52:11;100679.22;;;11.10;94.40
67373;BME280;54257;54.496;18.412;2022-11-11T11:54:54;100684.21;;;11.11;94.32
67373;BME280;54257;54.496;18.412;2022-11-11T11:57:35;100682.70;;;11.12;94.40
67373;BME280;54257;54.496;18.412;2022-11-11T12:00:21;100679.15;;;11.14;94.36
67373;BME280;54257;54.496;18.412;2022-11-11T12:16:16;100675.64;;;11.17;93.95
67373;BME280;54257;54.496;18.412;2022-11-11T12:19:02;100677.86;;;11.17;93.89
67373;BME280;54257;54.496;18.412;2022-11-11T12:35:24;100686.48;;;11.13;94.06
67373;BME280;54257;54.496;18.412;2022-11-11T12:49:12;100692.63;;;11.13;94.12
67373;BME280;54257;54.496;18.412;2022-11-11T13:05:29;100699.34;;;11.08;94.50
67373;BME280;54257;54.496;18.412;2022-11-11T13:13:51;100701.27;;;11.03;94.75
67373;BME280;54257;54.496;18.412;2022-11-11T13:16:16;100693.73;;;11.03;94.91
67373;BME280;54257;54.496;18.412;2022-11-11T13:18:59;100691.67;;;11.03;94.94
67373;BME280;54257;54.496;18.412;2022-11-11T13:21:41;100690.48;;;11.03;95.02
67373;BME280;54257;54.496;18.412;2022-11-11T13:24:12;100686.91;;;11.04;95.05
67373;BME280;54257;54.496;18.412;2022-11-11T13:30:26;100691.57;;;11.05;95.08
67373;BME280;54257;54.496;18.412;2022-11-11T13:32:27;100697.20;;;11.05;95.18
67373;BME280;54257;54.496;18.412;2022-11-11T13:34:56;100700.14;;;11.07;95.11
67373;BME280;54257;54.496;18.412;2022-11-11T13:37:25;100700.89;;;11.08;95.05
67373;BME280;54257;54.496;18.412;2022-11-11T13:40:02;100699.70;;;11.08;94.98
67373;BME280;54257;54.496;18.412;2022-11-11T13:42:38;100698.02;;;11.10;95.06
67373;BME280;54257;54.496;18.412;2022-11-11T13:45:18;100701.63;;;11.10;95.04
67373;BME280;54257;54.496;18.412;2022-11-11T13:47:48;100697.18;;;11.10;94.97
67373;BME280;54257;54.496;18.412;2022-11-11T13:50:36;100694.80;;;11.11;95.07
67373;BME280;54257;54.496;18.412;2022-11-11T13:53:06;100697.70;;;11.11;94.94
67373;BME280;54257;54.496;18.412;2022-11-11T13:55:43;100705.57;;;11.11;94.85
67373;BME280;54257;54.496;18.412;2022-11-11T13:58:25;100704.55;;;11.11;94.86
67373;BME280;54257;54.496;18.412;2022-11-11T14:00:59;100708.15;;;11.11;94.99
67373;BME280;54257;54.496;18.412;2022-11-11T14:03:29;100712.45;;;11.13;94.86
67373;BME280;54257;54.496;18.412;2022-11-11T14:13:56;100723.61;;;11.15;94.74
67373;BME280;54257;54.496;18.412;2022-11-11T14:19:26;100709.08;;;11.14;94.69
67373;BME280;54257;54.496;18.412;2022-11-11T14:21:58;100708.36;;;11.13;94.54
67373;BME280;54257;54.496;18.412;2022-11-11T14:24:38;100711.61;;;11.13;94.58
67373;BME280;54257;54.496;18.412;2022-11-11T14:29:37;100714.86;;;11.13;94.56
67373;BME280;54257;54.496;18.412;2022-11-11T14:35:15;100718.41;;;11.12;94.50
67373;BME280;54257;54.496;18.412;2022-11-11T14:40:51;100719.13;;;11.13;94.48
67373;BME280;54257;54.496;18.412;2022-11-11T14:43:35;100724.95;;;11.13;94.50
67373;BME280;54257;54.496;18.412;2022-11-11T14:46:07;100733.86;;;11.14;94.47
67373;BME280;54257;54.496;18.412;2022-11-11T14:49:03;100737.63;;;11.14;94.47
67373;BME280;54257;54.496;18.412;2022-11-11T14:54:17;100733.86;;;11.14;94.43
67373;BME280;54257;54.496;18.412;2022-11-11T14:56:54;100738.84;;;11.15;94.46
67373;BME280;54257;54.496;18.412;2022-11-11T14:59:23;100745.36;;;11.15;94.51
67373;BME280;54257;54.496;18.412;2022-11-11T15:01:53;100747.63;;;11.16;94.44